sensor_id;sensor_type;location;lat;lon;timestamp;temperature;humidity
3492;DHT22;1760;52.480;13.422;2022-08-11T00:01:04;22.20;66.30
3492;DHT22;1760;52.480;13.422;2022-08-11T00:03:32;22.20;66.40
3492;DHT22;1760;52.480;13.422;2022-08-11T00:06:00;22.10;66.30
3492;DHT22;1760;52.480;13.422;2022-08-11T00:08:30;22.10;66.50
3492;DHT22;1760;52.480;13.422;2022-08-11T00:11:00;22.10;66.80
3492;DHT22;1760;52.480;13.422;2022-08-11T00:13:32;22.10;66.70
3492;DHT22;1760;52.480;13.422;2022-08-11T00:16:00;22.10;66.70
3492;DHT22;1760;52.480;13.422;2022-08-11T00:18:28;22.10;66.90
3492;DHT22;1760;52.480;13.422;2022-08-11T00:20:57;22.10;67.10
3492;DHT22;1760;52.480;13.422;2022-08-11T00:23:25;22.10;67.20
3492;DHT22;1760;52.480;13.422;2022-08-11T00:25:54;22.00;67.30
3492;DHT22;1760;52.480;13.422;2022-08-11T00:28:24;22.00;67.60
3492;DHT22;1760;52.480;13.422;2022-08-11T00:30:53;22.00;67.60
3492;DHT22;1760;52.480;13.422;2022-08-11T00:33:22;21.90;67.80
3492;DHT22;1760;52.480;13.422;2022-08-11T00:35:50;21.90;67.90
3492;DHT22;1760;52.480;13.422;2022-08-11T00:38:23;21.90;68.20
3492;DHT22;1760;52.480;13.422;2022-08-11T00:40:55;21.90;68.20
3492;DHT22;1760;52.480;13.422;2022-08-11T00:43:40;21.80;68.40
3492;DHT22;1760;52.480;13.422;2022-08-11T00:46:21;21.80;68.40
3492;DHT22;1760;52.480;13.422;2022-08-11T00:49:01;21.80;68.80
3492;DHT22;1760;52.480;13.422;2022-08-11T00:51:45;21.70;69.90
3492;DHT22;1760;52.480;13.422;2022-08-11T00:54:35;21.70;69.40
3492;DHT22;1760;52.480;13.422;2022-08-11T00:57:26;21.70;69.30
3492;DHT22;1760;52.480;13.422;2022-08-11T01:00:12;21.70;69.50
3492;DHT22;1760;52.480;13.422;2022-08-11T01:02:52;21.70;69.80
3492;DHT22;1760;52.480;13.422;2022-08-11T01:09:05;21.60;70.30
3492;DHT22;1760;52.480;13.422;2022-08-11T01:18:42;21.50;71.80
3492;DHT22;1760;52.480;13.422;2022-08-11T01:27:50;21.30;73.10
3492;DHT22;1760;52.480;13.422;2022-08-11T01:31:14;21.30;73.50
3492;DHT22;1760;52.480;13.422;2022-08-11T01:37:11;21.20;74.20
3492;DHT22;1760;52.480;13.422;2022-08-11T01:46:11;21.20;75.10
3492;DHT22;1760;52.480;13.422;2022-08-11T01:48:42;21.20;75.70
3492;DHT22;1760;52.480;13.422;2022-08-11T01:51:34;21.10;75.90
3492;DHT22;1760;52.480;13.422;2022-08-11T01:54:10;21.10;76.30
3492;DHT22;1760;52.480;13.422;2022-08-11T01:56:52;21.10;76.60
3492;DHT22;1760;52.480;13.422;2022-08-11T01:59:28;21.10;77.00
3492;DHT22;1760;52.480;13.422;2022-08-11T02:02:21;21.10;77.40
3492;DHT22;1760;52.480;13.422;2022-08-11T02:05:19;21.00;77.80
3492;DHT22;1760;52.480;13.422;2022-08-11T02:07:57;21.00;78.40
3492;DHT22;1760;52.480;13.422;2022-08-11T02:10:32;20.90;78.70
3492;DHT22;1760;52.480;13.422;2022-08-11T02:13:24;20.90;79.30
3492;DHT22;1760;52.480;13.422;2022-08-11T02:16:09;20.90;80.00
3492;DHT22;1760;52.480;13.422;2022-08-11T02:18:41;20.90;80.40
3492;DHT22;1760;52.480;13.422;2022-08-11T02:21:41;20.80;81.00
3492;DHT22;1760;52.480;13.422;2022-08-11T02:24:30;20.80;81.30
3492;DHT22;1760;52.480;13.422;2022-08-11T02:27:05;20.70;81.70
3492;DHT22;1760;52.480;13.422;2022-08-11T02:29:37;20.70;82.60
3492;DHT22;1760;52.480;13.422;2022-08-11T02:32:24;20.60;83.10
3492;DHT22;1760;52.480;13.422;2022-08-11T02:35:17;20.60;83.60
3492;DHT22;1760;52.480;13.422;2022-08-11T02:37:51;20.60;84.20
3492;DHT22;1760;52.480;13.422;2022-08-11T02:40:29;20.60;85.10
3492;DHT22;1760;52.480;13.422;2022-08-11T02:43:24;20.50;85.80
3492;DHT22;1760;52.480;13.422;2022-08-11T02:46:00;20.50;86.60
3492;DHT22;1760;52.480;13.422;2022-08-11T02:48:39;20.50;87.40
3492;DHT22;1760;52.480;13.422;2022-08-11T02:51:45;20.50;87.30
3492;DHT22;1760;52.480;13.422;2022-08-11T02:54:26;20.50;87.90
3492;DHT22;1760;52.480;13.422;2022-08-11T02:56:58;20.50;88.70
3492;DHT22;1760;52.480;13.422;2022-08-11T02:59:36;20.40;89.10
3492;DHT22;1760;52.480;13.422;2022-08-11T03:02:32;20.40;89.70
3492;DHT22;1760;52.480;13.422;2022-08-11T03:05:11;20.40;90.20
3492;DHT22;1760;52.480;13.422;2022-08-11T03:07:55;20.30;90.60
3492;DHT22;1760;52.480;13.422;2022-08-11T03:10:33;20.30;91.00
3492;DHT22;1760;52.480;13.422;2022-08-11T03:13:07;20.30;91.20
3492;DHT22;1760;52.480;13.422;2022-08-11T03:16:08;20.20;91.60
3492;DHT22;1760;52.480;13.422;2022-08-11T03:19:02;20.20;91.90
3492;DHT22;1760;52.480;13.422;2022-08-11T03:21:38;20.20;92.20
3492;DHT22;1760;52.480;13.422;2022-08-11T03:24:12;20.20;92.50
3492;DHT22;1760;52.480;13.422;2022-08-11T03:26:46;20.20;92.70
3492;DHT22;1760;52.480;13.422;2022-08-11T03:29:24;20.10;93.20
3492;DHT22;1760;52.480;13.422;2022-08-11T03:31:59;20.10;93.60
3492;DHT22;1760;52.480;13.422;2022-08-11T03:34:29;20.10;93.90
3492;DHT22;1760;52.480;13.422;2022-08-11T03:37:15;20.00;94.10
3492;DHT22;1760;52.480;13.422;2022-08-11T03:40:05;20.00;94.50
3492;DHT22;1760;52.480;13.422;2022-08-11T03:42:42;19.90;94.90
3492;DHT22;1760;52.480;13.422;2022-08-11T03:45:22;19.90;95.20
3492;DHT22;1760;52.480;13.422;2022-08-11T03:48:09;19.90;95.50
3492;DHT22;1760;52.480;13.422;2022-08-11T03:51:02;19.90;95.90
3492;DHT22;1760;52.480;13.422;2022-08-11T03:53:43;19.90;96.30
3492;DHT22;1760;52.480;13.422;2022-08-11T03:59:34;19.90;96.80
3492;DHT22;1760;52.480;13.422;2022-08-11T04:02:18;19.80;97.00
3492;DHT22;1760;52.480;13.422;2022-08-11T04:05:26;19.80;97.50
3492;DHT22;1760;52.480;13.422;2022-08-11T04:11:36;19.70;98.40
3492;DHT22;1760;52.480;13.422;2022-08-11T04:14:31;19.70;98.60
3492;DHT22;1760;52.480;13.422;2022-08-11T04:17:50;19.70;98.80
3492;DHT22;1760;52.480;13.422;2022-08-11T04:23:53;19.70;99.60
3492;DHT22;1760;52.480;13.422;2022-08-11T04:26:52;19.60;99.90
3492;DHT22;1760;52.480;13.422;2022-08-11T04:29:34;19.60;99.90
3492;DHT22;1760;52.480;13.422;2022-08-11T04:32:20;19.60;99.90
3492;DHT22;1760;52.480;13.422;2022-08-11T04:35:24;19.60;99.90
3492;DHT22;1760;52.480;13.422;2022-08-11T04:45:05;19.70;99.90
3492;DHT22;1760;52.480;13.422;2022-08-11T04:51:05;19.80;99.90
3492;DHT22;1760;52.480;13.422;2022-08-11T04:53:59;19.80;99.90
3492;DHT22;1760;52.480;13.422;2022-08-11T04:56:47;19.80;99.90
3492;DHT22;1760;52.480;13.422;2022-08-11T05:00:03;19.80;99.90
3492;DHT22;1760;52.480;13.422;2022-08-11T05:03:30;19.80;99.90
3492;DHT22;1760;52.480;13.422;2022-08-11T05:06:29;19.90;99.90
3492;DHT22;1760;52.480;13.422;2022-08-11T05:09:33;19.80;99.90
3492;DHT22;1760;52.480;13.422;2022-08-11T05:12:27;19.90;99.90
3492;DHT22;1760;52.480;13.422;2022-08-11T05:14:56;19.80;99.90
3492;DHT22;1760;52.480;13.422;2022-08-11T05:17:44;19.80;99.90
3492;DHT22;1760;52.480;13.422;2022-08-11T05:20:42;19.80;99.90
3492;DHT22;1760;52.480;13.422;2022-08-11T05:23:28;19.90;99.90
3492;DHT22;1760;52.480;13.422;2022-08-11T05:26:15;19.90;99.90
3492;DHT22;1760;52.480;13.422;2022-08-11T05:29:04;19.90;99.90
3492;DHT22;1760;52.480;13.422;2022-08-11T05:32:11;20.00;99.90
3492;DHT22;1760;52.480;13.422;2022-08-11T05:34:58;19.90;99.90
3492;DHT22;1760;52.480;13.422;2022-08-11T05:37:33;20.00;99.90
3492;DHT22;1760;52.480;13.422;2022-08-11T05:40:06;20.10;99.90
3492;DHT22;1760;52.480;13.422;2022-08-11T05:42:55;20.20;99.90
3492;DHT22;1760;52.480;13.422;2022-08-11T05:45:40;20.20;99.90
3492;DHT22;1760;52.480;13.422;2022-08-11T05:48:31;20.30;99.90
3492;DHT22;1760;52.480;13.422;2022-08-11T05:51:16;20.40;99.90
3492;DHT22;1760;52.480;13.422;2022-08-11T05:54:03;20.40;99.90
3492;DHT22;1760;52.480;13.422;2022-08-11T05:56:53;20.40;99.90
3492;DHT22;1760;52.480;13.422;2022-08-11T05:59:22;20.40;99.90
3492;DHT22;1760;52.480;13.422;2022-08-11T06:01:50;20.50;99.90
3492;DHT22;1760;52.480;13.422;2022-08-11T06:04:20;20.50;99.90
3492;DHT22;1760;52.480;13.422;2022-08-11T06:06:49;20.60;99.90
3492;DHT22;1760;52.480;13.422;2022-08-11T06:09:23;20.70;99.90
3492;DHT22;1760;52.480;13.422;2022-08-11T06:11:51;20.80;99.90
3492;DHT22;1760;52.480;13.422;2022-08-11T06:14:19;20.90;99.90
3492;DHT22;1760;52.480;13.422;2022-08-11T06:16:48;21.10;99.90
3492;DHT22;1760;52.480;13.422;2022-08-11T06:19:19;21.20;99.90
3492;DHT22;1760;52.480;13.422;2022-08-11T06:21:48;21.30;99.90
3492;DHT22;1760;52.480;13.422;2022-08-11T06:24:17;21.40;99.90
3492;DHT22;1760;52.480;13.422;2022-08-11T06:26:50;21.40;99.90
3492;DHT22;1760;52.480;13.422;2022-08-11T06:29:18;21.50;99.90
3492;DHT22;1760;52.480;13.422;2022-08-11T06:31:51;21.50;99.90
3492;DHT22;1760;52.480;13.422;2022-08-11T06:34:37;21.60;99.90
3492;DHT22;1760;52.480;13.422;2022-08-11T06:37:17;21.70;99.90
3492;DHT22;1760;52.480;13.422;2022-08-11T06:39:51;21.70;99.90
3492;DHT22;1760;52.480;13.422;2022-08-11T06:42:35;21.70;99.90
3492;DHT22;1760;52.480;13.422;2022-08-11T06:45:11;21.80;99.90
3492;DHT22;1760;52.480;13.422;2022-08-11T06:47:43;21.90;99.90
3492;DHT22;1760;52.480;13.422;2022-08-11T06:50:15;21.90;99.90
3492;DHT22;1760;52.480;13.422;2022-08-11T06:53:01;22.00;99.90
3492;DHT22;1760;52.480;13.422;2022-08-11T06:55:30;22.10;99.90
3492;DHT22;1760;52.480;13.422;2022-08-11T06:58:21;22.20;99.90
3492;DHT22;1760;52.480;13.422;2022-08-11T07:01:09;22.30;99.90
3492;DHT22;1760;52.480;13.422;2022-08-11T07:03:39;22.40;99.80
3492;DHT22;1760;52.480;13.422;2022-08-11T07:06:18;22.50;99.50
3492;DHT22;1760;52.480;13.422;2022-08-11T07:09:34;22.60;99.00
3492;DHT22;1760;52.480;13.422;2022-08-11T07:12:43;22.70;98.50
3492;DHT22;1760;52.480;13.422;2022-08-11T07:15:33;23.00;98.20
3492;DHT22;1760;52.480;13.422;2022-08-11T07:18:19;23.10;97.50
3492;DHT22;1760;52.480;13.422;2022-08-11T07:21:14;23.20;96.80
3492;DHT22;1760;52.480;13.422;2022-08-11T07:24:01;23.30;96.40
3492;DHT22;1760;52.480;13.422;2022-08-11T07:26:50;23.40;96.60
3492;DHT22;1760;52.480;13.422;2022-08-11T07:29:35;23.60;95.90
3492;DHT22;1760;52.480;13.422;2022-08-11T07:32:14;23.70;94.70
3492;DHT22;1760;52.480;13.422;2022-08-11T07:34:47;23.80;94.50
3492;DHT22;1760;52.480;13.422;2022-08-11T07:37:18;23.90;94.40
3492;DHT22;1760;52.480;13.422;2022-08-11T07:39:47;24.10;93.60
3492;DHT22;1760;52.480;13.422;2022-08-11T07:42:19;24.20;93.50
3492;DHT22;1760;52.480;13.422;2022-08-11T07:44:47;24.40;92.80
3492;DHT22;1760;52.480;13.422;2022-08-11T07:47:35;24.60;91.50
3492;DHT22;1760;52.480;13.422;2022-08-11T07:50:20;24.80;91.00
3492;DHT22;1760;52.480;13.422;2022-08-11T07:53:05;25.10;90.20
3492;DHT22;1760;52.480;13.422;2022-08-11T07:55:32;25.80;88.40
3492;DHT22;1760;52.480;13.422;2022-08-11T07:58:00;27.30;83.40
3492;DHT22;1760;52.480;13.422;2022-08-11T08:00:48;29.20;76.60
3492;DHT22;1760;52.480;13.422;2022-08-11T08:03:36;31.50;64.30
3492;DHT22;1760;52.480;13.422;2022-08-11T08:06:21;33.30;57.80
3492;DHT22;1760;52.480;13.422;2022-08-11T08:09:07;35.20;52.40
3492;DHT22;1760;52.480;13.422;2022-08-11T08:11:52;36.70;47.20
3492;DHT22;1760;52.480;13.422;2022-08-11T08:14:37;37.70;45.60
3492;DHT22;1760;52.480;13.422;2022-08-11T08:17:21;38.70;43.10
3492;DHT22;1760;52.480;13.422;2022-08-11T08:20:11;39.80;41.60
3492;DHT22;1760;52.480;13.422;2022-08-11T08:22:39;40.20;40.10
3492;DHT22;1760;52.480;13.422;2022-08-11T08:25:07;40.50;38.20
3492;DHT22;1760;52.480;13.422;2022-08-11T08:27:35;40.90;36.40
3492;DHT22;1760;52.480;13.422;2022-08-11T08:30:04;40.90;37.10
3492;DHT22;1760;52.480;13.422;2022-08-11T08:32:50;41.10;36.20
3492;DHT22;1760;52.480;13.422;2022-08-11T08:35:19;41.20;35.80
3492;DHT22;1760;52.480;13.422;2022-08-11T08:37:48;41.40;35.10
3492;DHT22;1760;52.480;13.422;2022-08-11T08:40:17;41.40;35.10
3492;DHT22;1760;52.480;13.422;2022-08-11T08:42:48;41.40;34.80
3492;DHT22;1760;52.480;13.422;2022-08-11T08:45:16;41.50;34.10
3492;DHT22;1760;52.480;13.422;2022-08-11T08:47:47;41.40;34.20
3492;DHT22;1760;52.480;13.422;2022-08-11T08:50:21;41.10;34.20
3492;DHT22;1760;52.480;13.422;2022-08-11T08:52:52;40.80;34.70
3492;DHT22;1760;52.480;13.422;2022-08-11T08:55:20;40.50;35.30
3492;DHT22;1760;52.480;13.422;2022-08-11T08:57:48;40.60;34.80
3492;DHT22;1760;52.480;13.422;2022-08-11T09:00:17;40.60;34.80
3492;DHT22;1760;52.480;13.422;2022-08-11T09:02:46;40.80;34.30
3492;DHT22;1760;52.480;13.422;2022-08-11T09:05:16;40.80;34.20
3492;DHT22;1760;52.480;13.422;2022-08-11T09:07:46;40.80;34.30
3492;DHT22;1760;52.480;13.422;2022-08-11T09:10:20;40.70;35.30
3492;DHT22;1760;52.480;13.422;2022-08-11T09:12:47;40.50;35.10
3492;DHT22;1760;52.480;13.422;2022-08-11T09:15:15;40.70;34.80
3492;DHT22;1760;52.480;13.422;2022-08-11T09:17:44;40.80;34.80
3492;DHT22;1760;52.480;13.422;2022-08-11T09:20:13;40.70;34.40
3492;DHT22;1760;52.480;13.422;2022-08-11T09:22:42;40.60;34.40
3492;DHT22;1760;52.480;13.422;2022-08-11T09:25:30;40.60;34.30
3492;DHT22;1760;52.480;13.422;2022-08-11T09:28:17;40.40;34.70
3492;DHT22;1760;52.480;13.422;2022-08-11T09:30:46;40.30;34.10
3492;DHT22;1760;52.480;13.422;2022-08-11T09:33:18;40.40;34.10
3492;DHT22;1760;52.480;13.422;2022-08-11T09:35:46;40.40;33.50
3492;DHT22;1760;52.480;13.422;2022-08-11T09:38:16;40.50;33.30
3492;DHT22;1760;52.480;13.422;2022-08-11T09:41:05;40.50;33.30
3492;DHT22;1760;52.480;13.422;2022-08-11T09:43:37;40.50;33.40
3492;DHT22;1760;52.480;13.422;2022-08-11T09:46:25;40.50;33.00
3492;DHT22;1760;52.480;13.422;2022-08-11T09:48:54;40.50;33.10
3492;DHT22;1760;52.480;13.422;2022-08-11T09:51:24;40.40;32.80
3492;DHT22;1760;52.480;13.422;2022-08-11T09:53:51;40.60;32.50
3492;DHT22;1760;52.480;13.422;2022-08-11T09:56:22;40.50;32.90
3492;DHT22;1760;52.480;13.422;2022-08-11T09:59:08;40.40;33.30
3492;DHT22;1760;52.480;13.422;2022-08-11T10:01:39;40.40;33.20
3492;DHT22;1760;52.480;13.422;2022-08-11T10:04:11;40.40;33.20
3492;DHT22;1760;52.480;13.422;2022-08-11T10:06:41;40.90;32.60
3492;DHT22;1760;52.480;13.422;2022-08-11T10:09:27;40.80;32.60
3492;DHT22;1760;52.480;13.422;2022-08-11T10:11:57;40.90;32.60
3492;DHT22;1760;52.480;13.422;2022-08-11T10:14:26;40.70;33.10
3492;DHT22;1760;52.480;13.422;2022-08-11T10:17:14;40.50;32.70
3492;DHT22;1760;52.480;13.422;2022-08-11T10:19:42;40.40;32.30
3492;DHT22;1760;52.480;13.422;2022-08-11T10:22:13;40.20;32.60
3492;DHT22;1760;52.480;13.422;2022-08-11T10:24:55;40.40;32.50
3492;DHT22;1760;52.480;13.422;2022-08-11T10:27:42;39.90;31.80
3492;DHT22;1760;52.480;13.422;2022-08-11T10:30:10;39.40;32.20
3492;DHT22;1760;52.480;13.422;2022-08-11T10:32:56;39.20;33.00
3492;DHT22;1760;52.480;13.422;2022-08-11T10:35:41;38.70;33.40
3492;DHT22;1760;52.480;13.422;2022-08-11T10:38:12;38.30;34.00
3492;DHT22;1760;52.480;13.422;2022-08-11T10:40:40;38.20;34.30
3492;DHT22;1760;52.480;13.422;2022-08-11T10:43:12;38.10;33.90
3492;DHT22;1760;52.480;13.422;2022-08-11T10:45:42;38.00;35.10
3492;DHT22;1760;52.480;13.422;2022-08-11T10:48:29;38.00;34.10
3492;DHT22;1760;52.480;13.422;2022-08-11T10:50:58;37.60;34.80
3492;DHT22;1760;52.480;13.422;2022-08-11T10:53:41;37.30;35.60
3492;DHT22;1760;52.480;13.422;2022-08-11T10:56:28;37.00;36.10
3492;DHT22;1760;52.480;13.422;2022-08-11T10:59:15;36.50;35.80
3492;DHT22;1760;52.480;13.422;2022-08-11T11:01:43;36.30;36.10
3492;DHT22;1760;52.480;13.422;2022-08-11T11:04:13;36.00;37.10
3492;DHT22;1760;52.480;13.422;2022-08-11T11:06:49;35.90;37.10
3492;DHT22;1760;52.480;13.422;2022-08-11T11:09:19;35.80;37.40
3492;DHT22;1760;52.480;13.422;2022-08-11T11:11:49;35.60;38.00
3492;DHT22;1760;52.480;13.422;2022-08-11T11:14:44;35.50;38.30
3492;DHT22;1760;52.480;13.422;2022-08-11T11:17:30;35.40;38.70
3492;DHT22;1760;52.480;13.422;2022-08-11T11:20:22;35.30;38.40
3492;DHT22;1760;52.480;13.422;2022-08-11T11:22:53;35.20;38.20
3492;DHT22;1760;52.480;13.422;2022-08-11T11:25:34;34.90;38.80
3492;DHT22;1760;52.480;13.422;2022-08-11T11:28:24;34.80;39.00
3492;DHT22;1760;52.480;13.422;2022-08-11T11:31:05;34.20;39.00
3492;DHT22;1760;52.480;13.422;2022-08-11T11:33:53;33.60;40.30
3492;DHT22;1760;52.480;13.422;2022-08-11T11:36:27;33.40;40.90
3492;DHT22;1760;52.480;13.422;2022-08-11T11:38:57;33.30;40.30
3492;DHT22;1760;52.480;13.422;2022-08-11T11:41:25;33.30;41.40
3492;DHT22;1760;52.480;13.422;2022-08-11T11:43:56;33.30;41.10
3492;DHT22;1760;52.480;13.422;2022-08-11T11:46:26;33.40;40.40
3492;DHT22;1760;52.480;13.422;2022-08-11T11:48:55;33.40;39.90
3492;DHT22;1760;52.480;13.422;2022-08-11T11:51:23;33.40;39.80
3492;DHT22;1760;52.480;13.422;2022-08-11T11:53:51;33.30;39.70
3492;DHT22;1760;52.480;13.422;2022-08-11T11:56:21;33.00;41.00
3492;DHT22;1760;52.480;13.422;2022-08-11T11:58:51;32.90;40.60
3492;DHT22;1760;52.480;13.422;2022-08-11T12:01:38;32.80;40.20
3492;DHT22;1760;52.480;13.422;2022-08-11T12:04:05;32.60;40.70
3492;DHT22;1760;52.480;13.422;2022-08-11T12:06:32;32.60;39.90
3492;DHT22;1760;52.480;13.422;2022-08-11T12:09:00;32.40;40.40
3492;DHT22;1760;52.480;13.422;2022-08-11T12:11:27;32.40;40.70
3492;DHT22;1760;52.480;13.422;2022-08-11T12:14:15;32.30;41.10
3492;DHT22;1760;52.480;13.422;2022-08-11T12:16:45;32.30;40.90
3492;DHT22;1760;52.480;13.422;2022-08-11T12:19:15;32.20;41.10
3492;DHT22;1760;52.480;13.422;2022-08-11T12:21:42;32.30;41.30
3492;DHT22;1760;52.480;13.422;2022-08-11T12:24:24;32.30;40.80
3492;DHT22;1760;52.480;13.422;2022-08-11T12:27:08;32.30;40.70
3492;DHT22;1760;52.480;13.422;2022-08-11T12:29:49;32.10;41.20
3492;DHT22;1760;52.480;13.422;2022-08-11T12:32:18;31.90;41.50
3492;DHT22;1760;52.480;13.422;2022-08-11T12:34:46;31.70;41.50
3492;DHT22;1760;52.480;13.422;2022-08-11T12:37:13;31.60;41.30
3492;DHT22;1760;52.480;13.422;2022-08-11T12:39:45;31.60;41.50
3492;DHT22;1760;52.480;13.422;2022-08-11T12:42:33;31.70;41.00
3492;DHT22;1760;52.480;13.422;2022-08-11T12:45:20;31.80;40.30
3492;DHT22;1760;52.480;13.422;2022-08-11T12:48:03;31.80;40.10
3492;DHT22;1760;52.480;13.422;2022-08-11T12:50:53;31.90;40.30
3492;DHT22;1760;52.480;13.422;2022-08-11T12:53:44;31.80;40.00
3492;DHT22;1760;52.480;13.422;2022-08-11T12:56:12;31.90;39.70
3492;DHT22;1760;52.480;13.422;2022-08-11T12:58:58;31.90;39.40
3492;DHT22;1760;52.480;13.422;2022-08-11T13:01:44;31.90;38.70
3492;DHT22;1760;52.480;13.422;2022-08-11T13:04:30;32.00;39.30
3492;DHT22;1760;52.480;13.422;2022-08-11T13:07:14;31.90;39.00
3492;DHT22;1760;52.480;13.422;2022-08-11T13:09:43;31.90;39.40
3492;DHT22;1760;52.480;13.422;2022-08-11T13:12:11;31.80;39.60
3492;DHT22;1760;52.480;13.422;2022-08-11T13:14:56;31.90;39.80
3492;DHT22;1760;52.480;13.422;2022-08-11T13:17:24;32.00;39.20
3492;DHT22;1760;52.480;13.422;2022-08-11T13:19:55;32.10;39.00
3492;DHT22;1760;52.480;13.422;2022-08-11T13:22:24;32.10;39.10
3492;DHT22;1760;52.480;13.422;2022-08-11T13:24:52;32.20;39.70
3492;DHT22;1760;52.480;13.422;2022-08-11T13:27:20;32.20;38.60
3492;DHT22;1760;52.480;13.422;2022-08-11T13:29:48;32.20;39.20
3492;DHT22;1760;52.480;13.422;2022-08-11T13:32:18;32.20;39.50
3492;DHT22;1760;52.480;13.422;2022-08-11T13:34:46;32.20;38.90
3492;DHT22;1760;52.480;13.422;2022-08-11T13:37:15;32.30;39.80
3492;DHT22;1760;52.480;13.422;2022-08-11T13:39:45;32.30;39.20
3492;DHT22;1760;52.480;13.422;2022-08-11T13:42:14;32.40;38.30
3492;DHT22;1760;52.480;13.422;2022-08-11T13:44:45;32.40;38.60
3492;DHT22;1760;52.480;13.422;2022-08-11T13:47:13;32.40;39.20
3492;DHT22;1760;52.480;13.422;2022-08-11T13:49:43;32.40;38.80
3492;DHT22;1760;52.480;13.422;2022-08-11T13:52:13;32.40;38.30
3492;DHT22;1760;52.480;13.422;2022-08-11T13:54:45;32.40;39.10
3492;DHT22;1760;52.480;13.422;2022-08-11T13:57:13;32.40;38.30
3492;DHT22;1760;52.480;13.422;2022-08-11T13:59:44;32.40;37.30
3492;DHT22;1760;52.480;13.422;2022-08-11T14:02:14;32.40;38.30
3492;DHT22;1760;52.480;13.422;2022-08-11T14:04:44;32.30;38.00
3492;DHT22;1760;52.480;13.422;2022-08-11T14:07:18;32.30;38.00
3492;DHT22;1760;52.480;13.422;2022-08-11T14:09:53;32.30;37.90
3492;DHT22;1760;52.480;13.422;2022-08-11T14:12:24;32.20;37.90
3492;DHT22;1760;52.480;13.422;2022-08-11T14:15:13;32.30;37.40
3492;DHT22;1760;52.480;13.422;2022-08-11T14:17:46;32.20;37.50
3492;DHT22;1760;52.480;13.422;2022-08-11T14:20:16;32.20;37.00
3492;DHT22;1760;52.480;13.422;2022-08-11T14:22:44;32.10;37.20
3492;DHT22;1760;52.480;13.422;2022-08-11T14:25:12;32.20;37.50
3492;DHT22;1760;52.480;13.422;2022-08-11T14:27:42;32.10;36.80
3492;DHT22;1760;52.480;13.422;2022-08-11T14:30:11;32.20;37.10
3492;DHT22;1760;52.480;13.422;2022-08-11T14:32:59;32.30;37.10
3492;DHT22;1760;52.480;13.422;2022-08-11T14:35:27;32.30;37.60
3492;DHT22;1760;52.480;13.422;2022-08-11T14:37:56;32.40;37.40
3492;DHT22;1760;52.480;13.422;2022-08-11T14:40:25;32.40;36.70
3492;DHT22;1760;52.480;13.422;2022-08-11T14:43:10;32.30;36.40
3492;DHT22;1760;52.480;13.422;2022-08-11T14:45:55;32.30;36.60
3492;DHT22;1760;52.480;13.422;2022-08-11T14:48:40;32.30;36.60
3492;DHT22;1760;52.480;13.422;2022-08-11T14:51:08;32.30;36.50
3492;DHT22;1760;52.480;13.422;2022-08-11T14:53:35;32.30;36.30
3492;DHT22;1760;52.480;13.422;2022-08-11T14:56:04;32.30;36.40
3492;DHT22;1760;52.480;13.422;2022-08-11T14:58:48;32.40;36.70
3492;DHT22;1760;52.480;13.422;2022-08-11T15:01:16;32.30;36.00
3492;DHT22;1760;52.480;13.422;2022-08-11T15:04:00;32.30;36.20
3492;DHT22;1760;52.480;13.422;2022-08-11T15:06:27;32.30;36.10
3492;DHT22;1760;52.480;13.422;2022-08-11T15:08:54;32.20;36.00
3492;DHT22;1760;52.480;13.422;2022-08-11T15:11:24;32.10;36.00
3492;DHT22;1760;52.480;13.422;2022-08-11T15:14:10;32.20;36.30
3492;DHT22;1760;52.480;13.422;2022-08-11T15:16:40;32.10;36.90
3492;DHT22;1760;52.480;13.422;2022-08-11T15:19:28;32.00;36.80
3492;DHT22;1760;52.480;13.422;2022-08-11T15:21:58;31.90;36.20
3492;DHT22;1760;52.480;13.422;2022-08-11T15:24:42;31.90;35.90
3492;DHT22;1760;52.480;13.422;2022-08-11T15:27:12;31.90;36.60
3492;DHT22;1760;52.480;13.422;2022-08-11T15:29:58;31.80;36.60
3492;DHT22;1760;52.480;13.422;2022-08-11T15:32:56;31.80;36.10
3492;DHT22;1760;52.480;13.422;2022-08-11T15:35:41;31.70;35.70
3492;DHT22;1760;52.480;13.422;2022-08-11T15:38:27;31.50;35.70
3492;DHT22;1760;52.480;13.422;2022-08-11T15:41:03;31.50;36.40
3492;DHT22;1760;52.480;13.422;2022-08-11T15:43:52;31.50;36.80
3492;DHT22;1760;52.480;13.422;2022-08-11T15:46:41;31.40;36.40
3492;DHT22;1760;52.480;13.422;2022-08-11T15:49:11;31.40;36.10
3492;DHT22;1760;52.480;13.422;2022-08-11T15:51:42;31.40;35.80
3492;DHT22;1760;52.480;13.422;2022-08-11T15:54:13;31.40;36.20
3492;DHT22;1760;52.480;13.422;2022-08-11T15:56:43;31.40;35.90
3492;DHT22;1760;52.480;13.422;2022-08-11T15:59:14;31.20;35.70
3492;DHT22;1760;52.480;13.422;2022-08-11T16:02:00;31.20;35.50
3492;DHT22;1760;52.480;13.422;2022-08-11T16:04:53;31.10;35.40
3492;DHT22;1760;52.480;13.422;2022-08-11T16:07:23;31.10;35.30
3492;DHT22;1760;52.480;13.422;2022-08-11T16:09:55;31.10;35.60
3492;DHT22;1760;52.480;13.422;2022-08-11T16:12:25;31.00;36.30
3492;DHT22;1760;52.480;13.422;2022-08-11T16:14:58;30.90;35.00
3492;DHT22;1760;52.480;13.422;2022-08-11T16:17:46;30.90;35.60
3492;DHT22;1760;52.480;13.422;2022-08-11T16:20:18;30.80;34.90
3492;DHT22;1760;52.480;13.422;2022-08-11T16:22:47;30.70;35.70
3492;DHT22;1760;52.480;13.422;2022-08-11T16:25:18;30.60;35.60
3492;DHT22;1760;52.480;13.422;2022-08-11T16:27:48;30.50;35.30
3492;DHT22;1760;52.480;13.422;2022-08-11T16:30:17;30.50;34.80
3492;DHT22;1760;52.480;13.422;2022-08-11T16:32:46;30.40;35.00
3492;DHT22;1760;52.480;13.422;2022-08-11T16:35:18;30.40;35.60
3492;DHT22;1760;52.480;13.422;2022-08-11T16:38:03;30.30;35.30
3492;DHT22;1760;52.480;13.422;2022-08-11T16:40:51;30.30;35.40
3492;DHT22;1760;52.480;13.422;2022-08-11T16:43:22;30.20;35.30
3492;DHT22;1760;52.480;13.422;2022-08-11T16:46:08;30.10;35.60
3492;DHT22;1760;52.480;13.422;2022-08-11T16:48:56;30.10;35.20
3492;DHT22;1760;52.480;13.422;2022-08-11T16:51:24;30.00;35.30
3492;DHT22;1760;52.480;13.422;2022-08-11T16:53:51;30.00;35.80
3492;DHT22;1760;52.480;13.422;2022-08-11T16:56:20;29.90;36.10
3492;DHT22;1760;52.480;13.422;2022-08-11T16:58:53;29.90;36.10
3492;DHT22;1760;52.480;13.422;2022-08-11T17:01:40;29.80;36.30
3492;DHT22;1760;52.480;13.422;2022-08-11T17:04:11;29.80;35.10
3492;DHT22;1760;52.480;13.422;2022-08-11T17:06:59;29.70;35.00
3492;DHT22;1760;52.480;13.422;2022-08-11T17:09:46;29.70;35.30
3492;DHT22;1760;52.480;13.422;2022-08-11T17:12:33;29.60;35.20
3492;DHT22;1760;52.480;13.422;2022-08-11T17:15:19;29.50;35.50
3492;DHT22;1760;52.480;13.422;2022-08-11T17:18:07;29.50;35.60
3492;DHT22;1760;52.480;13.422;2022-08-11T17:20:36;29.40;36.20
3492;DHT22;1760;52.480;13.422;2022-08-11T17:23:05;29.40;36.60
3492;DHT22;1760;52.480;13.422;2022-08-11T17:25:50;29.30;37.00
3492;DHT22;1760;52.480;13.422;2022-08-11T17:28:17;29.20;37.00
3492;DHT22;1760;52.480;13.422;2022-08-11T17:30:46;29.20;36.40
3492;DHT22;1760;52.480;13.422;2022-08-11T17:33:33;29.10;37.30
3492;DHT22;1760;52.480;13.422;2022-08-11T17:36:19;29.00;37.60
3492;DHT22;1760;52.480;13.422;2022-08-11T17:38:49;28.90;36.80
3492;DHT22;1760;52.480;13.422;2022-08-11T17:41:17;28.80;37.70